Time;durP1;ratioP1;P1;durP2;ratioP2;P2;SDS_P1;SDS_P2;PMS_P1;PMS_P2;Temp;Humidity;BMP_temperature;BMP_pressure;BME280_temperature;BME280_humidity;BME280_pressure;Samples;Min_cycle;Max_cycle;Signal;HPM_P1;HPM_P2
2021/12/19 00:02:19;;;;;;;2.35;0.70;;;30.40;99.90;;;;;;5071201;28;20032;-67
2021/12/19 00:10:08;;;;;;;2.00;0.40;;;29.80;99.90;;;;;;5049914;28;20044;-67
2021/12/19 00:12:35;;;;;;;3.92;0.70;;;29.70;99.90;;;;;;5068120;28;20044;-67
2021/12/19 00:15:03;;;;;;;0.93;0.30;;;29.80;99.90;;;;;;5074348;28;20103;-68
2021/12/19 00:17:30;;;;;;;7.80;1.35;;;29.70;99.90;;;;;;5070710;28;20020;-66
2021/12/19 00:19:57;;;;;;;3.55;1.42;;;29.80;99.90;;;;;;5074099;28;20441;-68
2021/12/19 00:22:24;;;;;;;1.33;0.52;;;30.00;99.90;;;;;;5067344;28;20473;-68
2021/12/19 00:24:51;;;;;;;1.73;0.47;;;30.10;99.90;;;;;;5070472;28;20035;-67
2021/12/19 00:27:19;;;;;;;2.00;0.40;;;30.30;99.90;;;;;;5050632;28;20043;-67
2021/12/19 00:29:46;;;;;;;2.05;0.38;;;30.30;99.90;;;;;;5047708;28;20029;-67
2021/12/19 00:32:13;;;;;;;0.98;0.43;;;30.40;99.90;;;;;;5044388;28;20029;-67
2021/12/19 00:34:41;;;;;;;2.78;0.40;;;30.50;99.90;;;;;;5053403;28;20029;-67
2021/12/19 00:37:08;;;;;;;5.60;1.02;;;30.50;99.90;;;;;;5052807;28;20080;-67
2021/12/19 00:39:35;;;;;;;0.82;0.40;;;30.50;99.90;;;;;;5053662;28;20021;-67
2021/12/19 00:42:07;;;;;;;0.38;0.28;;;30.50;99.90;;;;;;5051858;28;20082;-67
2021/12/19 00:44:37;;;;;;;3.92;0.95;;;30.50;99.90;;;;;;5054340;28;20453;-67
2021/12/19 00:47:07;;;;;;;1.67;0.50;;;30.60;99.90;;;;;;5047297;28;20527;-67
2021/12/19 00:49:35;;;;;;;3.05;0.40;;;30.80;99.90;;;;;;5033431;28;20401;-67
2021/12/19 00:52:04;;;;;;;2.38;0.43;;;30.80;99.90;;;;;;5043230;28;20036;-67
2021/12/19 00:54:31;;;;;;;2.72;0.70;;;30.90;99.90;;;;;;5053324;28;20025;-68
2021/12/19 00:56:59;;;;;;;2.53;0.70;;;31.20;99.90;;;;;;5048381;28;20135;-68
2021/12/19 00:59:26;;;;;;;2.05;0.73;;;31.30;99.90;;;;;;5051040;28;20025;-68
2021/12/19 01:01:53;;;;;;;2.05;0.50;;;31.40;99.90;;;;;;5043147;28;20384;-68
2021/12/19 01:04:21;;;;;;;2.78;0.60;;;31.30;99.90;;;;;;5051165;28;20028;-68
2021/12/19 01:06:49;;;;;;;2.55;0.40;;;31.40;99.90;;;;;;5050497;28;20037;-68
2021/12/19 01:09:17;;;;;;;5.40;0.70;;;31.40;99.90;;;;;;5053989;28;20056;-68
2021/12/19 01:11:48;;;;;;;2.35;0.60;;;31.50;99.90;;;;;;5053084;28;20040;-68
2021/12/19 01:14:16;;;;;;;2.95;0.40;;;31.60;99.90;;;;;;5053602;28;20372;-67
2021/12/19 01:16:43;;;;;;;1.13;0.38;;;31.80;99.90;;;;;;5051266;28;20056;-69
2021/12/19 01:19:11;;;;;;;2.97;0.40;;;32.30;99.90;;;;;;5053399;28;20071;-68
2021/12/19 01:21:38;;;;;;;1.60;0.30;;;32.50;99.90;;;;;;5051788;28;20029;-69
2021/12/19 01:24:06;;;;;;;1.80;0.60;;;32.90;99.90;;;;;;5048156;28;20021;-68
2021/12/19 01:26:33;;;;;;;1.77;0.30;;;32.90;99.90;;;;;;5050023;28;20037;-68
2021/12/19 01:29:00;;;;;;;1.05;0.20;;;32.80;99.30;;;;;;5051551;28;20036;-68
2021/12/19 01:31:28;;;;;;;2.28;0.35;;;32.90;99.30;;;;;;5050843;28;20091;-68
2021/12/19 01:33:55;;;;;;;2.28;0.65;;;32.90;99.50;;;;;;5055571;28;20032;-69
2021/12/19 01:36:22;;;;;;;6.50;0.30;;;32.70;98.80;;;;;;5052298;28;20095;-68
2021/12/19 01:38:49;;;;;;;1.30;0.50;;;32.70;98.80;;;;;;5053334;28;20036;-69
2021/12/19 01:41:17;;;;;;;1.83;0.57;;;32.50;98.90;;;;;;5051261;28;20516;-70
2021/12/19 01:43:44;;;;;;;0.60;0.28;;;32.40;98.30;;;;;;5053401;28;20036;-68
2021/12/19 01:46:12;;;;;;;2.22;0.38;;;32.70;98.30;;;;;;5051694;28;20385;-70
2021/12/19 01:48:40;;;;;;;1.10;0.30;;;32.70;98.20;;;;;;5052951;28;20108;-69
2021/12/19 01:51:08;;;;;;;2.67;0.30;;;32.70;97.80;;;;;;5050493;28;20042;-69
2021/12/19 01:53:38;;;;;;;1.45;0.28;;;32.50;98.20;;;;;;5052691;28;20049;-69
2021/12/19 01:56:07;;;;;;;2.08;0.30;;;32.30;98.20;;;;;;5050846;28;20036;-69
2021/12/19 01:58:37;;;;;;;3.05;0.20;;;32.30;98.10;;;;;;5052116;28;20037;-68
2021/12/19 02:01:05;;;;;;;4.82;0.40;;;32.30;98.20;;;;;;5049728;28;20039;-68
2021/12/19 02:03:35;;;;;;;2.50;0.40;;;32.30;98.30;;;;;;5051711;28;20520;-68
2021/12/19 02:06:03;;;;;;;0.40;0.20;;;32.30;98.10;;;;;;5035890;28;20025;-68
2021/12/19 02:08:30;;;;;;;0.70;0.30;;;32.40;97.90;;;;;;5049701;28;20021;-68
2021/12/19 02:10:58;;;;;;;2.30;0.40;;;32.70;97.40;;;;;;5049197;28;20063;-68
2021/12/19 02:13:25;;;;;;;2.38;0.30;;;32.90;97.10;;;;;;5052529;28;20037;-68
2021/12/19 02:15:53;;;;;;;2.17;0.20;;;32.90;97.10;;;;;;5050562;28;20039;-68
2021/12/19 02:18:22;;;;;;;1.77;0.30;;;33.20;96.60;;;;;;5071969;28;20020;-68
2021/12/19 02:20:55;;;;;;;3.28;0.32;;;33.40;96.70;;;;;;5065965;28;20021;-67
2021/12/19 02:23:24;;;;;;;;;;;33.50;96.90;;;;;;5048894;28;20123;-68
2021/12/19 02:25:52;;;;;;;1.60;0.45;;;33.30;97.00;;;;;;5051669;28;19905;-68
2021/12/19 02:28:20;;;;;;;1.33;0.45;;;33.30;97.10;;;;;;5070956;28;20029;-68
2021/12/19 02:30:49;;;;;;;0.30;0.20;;;33.30;96.50;;;;;;5071513;28;20037;-68
2021/12/19 02:33:21;;;;;;;1.55;0.38;;;33.10;96.50;;;;;;5050786;28;20029;-67
2021/12/19 02:35:58;;;;;;;1.90;0.20;;;33.10;96.20;;;;;;5050762;28;20402;-69
2021/12/19 02:49:22;;;;;;;1.38;0.35;;;33.90;95.90;;;;;;5032515;28;20094;-68
2021/12/19 02:51:51;;;;;;;2.70;0.28;;;33.70;95.50;;;;;;5048108;28;20513;-68
2021/12/19 02:54:19;;;;;;;2.97;0.40;;;33.70;95.20;;;;;;5056062;28;20033;-69
2021/12/19 02:56:46;;;;;;;2.22;0.40;;;33.80;95.90;;;;;;5053927;28;20064;-68
2021/12/19 02:59:14;;;;;;;0.65;0.22;;;34.10;95.40;;;;;;5058679;28;20044;-68
2021/12/19 03:01:43;;;;;;;1.48;0.55;;;34.10;95.10;;;;;;5057194;28;20025;-68
2021/12/19 03:04:10;;;;;;;3.55;0.40;;;34.30;95.20;;;;;;5056734;28;20025;-67
2021/12/19 03:06:47;;;;;;;3.38;0.77;;;34.30;95.10;;;;;;5047990;28;20056;-67
2021/12/19 03:09:21;;;;;;;2.30;0.40;;;34.10;95.20;;;;;;5038189;28;20018;-68
2021/12/19 03:12:14;;;;;;;1.88;0.70;;;34.10;95.70;;;;;;5038686;28;20059;-68
2021/12/19 03:20:13;;;;;;;2.05;0.20;;;34.90;94.80;;;;;;5069340;28;20044;-68
2021/12/19 03:22:41;;;;;;;4.20;0.30;;;34.80;94.80;;;;;;5072833;28;20039;-68
2021/12/19 03:25:09;;;;;;;0.88;0.20;;;34.70;94.30;;;;;;5073139;28;20056;-68
2021/12/19 03:27:36;;;;;;;3.20;0.40;;;34.70;94.50;;;;;;5071271;28;20029;-69
2021/12/19 03:30:06;;;;;;;2.17;0.30;;;34.60;94.40;;;;;;5056782;28;20025;-68
2021/12/19 03:32:33;;;;;;;2.72;0.47;;;34.50;94.30;;;;;;5066539;28;20029;-69
2021/12/19 03:35:01;;;;;;;1.15;0.30;;;34.10;94.50;;;;;;5063309;28;20028;-69
2021/12/19 03:37:28;;;;;;;4.03;0.30;;;33.70;94.80;;;;;;5051297;28;20049;-69
2021/12/19 03:40:09;;;;;;;2.03;0.25;;;33.60;94.90;;;;;;5042381;28;20394;-68
2021/12/19 03:42:49;;;;;;;2.05;0.30;;;33.50;94.50;;;;;;5073780;28;20040;-68
2021/12/19 03:45:18;;;;;;;1.25;0.30;;;33.50;94.70;;;;;;5078353;28;20032;-68
2021/12/19 03:47:46;;;;;;;1.60;0.20;;;33.20;94.80;;;;;;5070952;28;20113;-68
2021/12/19 03:50:18;;;;;;;2.30;0.35;;;33.10;95.50;;;;;;5061123;28;20065;-69
2021/12/19 03:52:46;;;;;;;3.47;0.57;;;32.90;95.60;;;;;;5070045;28;20057;-69
2021/12/19 03:55:14;;;;;;;2.03;0.30;;;33.00;95.90;;;;;;5047565;28;20025;-68
2021/12/19 03:57:41;;;;;;;2.85;0.38;;;33.10;95.80;;;;;;5075405;28;20082;-68
2021/12/19 04:00:13;;;;;;;3.25;0.40;;;33.00;95.60;;;;;;5066495;28;20033;-68
2021/12/19 04:02:40;;;;;;;1.58;0.40;;;33.30;95.50;;;;;;5058275;28;20025;-68
2021/12/19 04:05:08;;;;;;;1.35;0.40;;;33.50;95.40;;;;;;5062552;28;20155;-68
2021/12/19 04:07:35;;;;;;;1.42;0.52;;;33.50;95.40;;;;;;5054989;28;20032;-69
2021/12/19 04:10:02;;;;;;;0.95;0.25;;;33.40;95.60;;;;;;5063904;28;20116;-68
2021/12/19 04:12:30;;;;;;;2.22;0.40;;;33.30;95.60;;;;;;5068412;28;20033;-68
2021/12/19 04:14:58;;;;;;;2.10;0.30;;;33.00;95.60;;;;;;5062054;28;20548;-67
2021/12/19 04:17:25;;;;;;;0.60;0.10;;;32.70;95.80;;;;;;5062227;28;20033;-67
2021/12/19 04:19:52;;;;;;;1.80;0.30;;;32.50;96.30;;;;;;5062182;28;20082;-67
2021/12/19 04:22:19;;;;;;;5.78;0.77;;;31.90;97.70;;;;;;5075146;28;20078;-69
2021/12/19 04:24:47;;;;;;;8.13;1.27;;;29.80;99.90;;;;;;5054714;28;20021;-68
2021/12/19 04:27:15;;;;;;;6.50;0.70;;;28.80;99.90;;;;;;5071125;28;20013;-68
2021/12/19 04:29:42;;;;;;;2.25;0.70;;;28.50;99.90;;;;;;5079309;28;20666;-69
2021/12/19 04:32:11;;;;;;;4.35;0.60;;;28.60;99.90;;;;;;5089597;28;20273;-69
2021/12/19 04:34:39;;;;;;;1.70;0.40;;;28.80;99.90;;;;;;5099671;28;20016;-68
2021/12/19 04:37:31;;;;;;;4.25;0.47;;;29.10;99.90;;;;;;5082883;28;20033;-69
2021/12/19 04:40:05;;;;;;;2.53;0.60;;;29.30;99.90;;;;;;5061553;28;20021;-68
2021/12/19 04:43:41;;;;;;;1.83;0.20;;;29.60;99.90;;;;;;5062545;28;20025;-68
2021/12/19 04:53:50;;;;;;;3.00;0.40;;;31.20;97.90;;;;;;5073528;28;20025;-67
2021/12/19 04:59:47;;;;;;;5.28;0.40;;;31.40;97.60;;;;;;5072149;28;20025;-67
2021/12/19 05:04:25;;;;;;;1.92;0.20;;;31.40;97.20;;;;;;5072806;28;20021;-66
2021/12/19 05:15:07;;;;;;;1.40;0.10;;;31.50;96.30;;;;;;5071874;28;20082;-67
2021/12/19 05:17:35;;;;;;;2.30;0.30;;;31.50;96.20;;;;;;5058748;28;20081;-69
2021/12/19 05:20:13;;;;;;;1.00;0.35;;;31.30;96.40;;;;;;5054528;28;20458;-67
2021/12/19 05:22:48;;;;;;;10.27;0.85;;;31.10;96.40;;;;;;5057267;28;20018;-67
2021/12/19 05:25:17;;;;;;;3.10;0.20;;;31.10;96.70;;;;;;5056750;28;20029;-67
2021/12/19 05:27:51;;;;;;;1.65;0.50;;;31.00;96.40;;;;;;5074397;28;20009;-67
2021/12/19 05:30:18;;;;;;;2.80;0.40;;;31.00;96.30;;;;;;5077828;28;20029;-66
2021/12/19 05:32:48;;;;;;;2.20;0.20;;;31.00;96.70;;;;;;5075541;28;20021;-66
2021/12/19 05:35:23;;;;;;;9.35;0.57;;;30.90;96.60;;;;;;5077858;28;20013;-67
2021/12/19 05:46:07;;;;;;;1.73;0.32;;;30.90;96.30;;;;;;5074853;28;20039;-67
2021/12/19 05:48:34;;;;;;;1.88;0.45;;;30.70;96.40;;;;;;5078601;28;20102;-67
2021/12/19 05:51:02;;;;;;;2.05;0.30;;;30.70;96.50;;;;;;5073983;28;20561;-68
2021/12/19 05:53:29;;;;;;;4.20;0.30;;;30.60;96.20;;;;;;5062156;28;20029;-67
2021/12/19 05:55:57;;;;;;;4.00;0.55;;;30.60;96.30;;;;;;5073547;28;20054;-67
2021/12/19 05:58:24;;;;;;;3.58;0.38;;;30.60;96.20;;;;;;5068280;28;20032;-69
2021/12/19 06:00:52;;;;;;;2.28;0.30;;;30.60;96.30;;;;;;5073288;28;20029;-67
2021/12/19 06:03:19;;;;;;;1.00;0.30;;;30.50;96.40;;;;;;5051335;28;20025;-67
2021/12/19 06:05:46;;;;;;;1.35;0.40;;;30.40;96.70;;;;;;5068366;28;20025;-68
2021/12/19 06:08:14;;;;;;;6.05;0.30;;;30.20;96.70;;;;;;5053516;28;20026;-67
2021/12/19 06:10:42;;;;;;;2.55;0.30;;;30.10;96.80;;;;;;5059059;28;20017;-67
2021/12/19 06:13:09;;;;;;;1.15;0.20;;;30.10;97.30;;;;;;5073972;28;20090;-68
2021/12/19 06:15:36;;;;;;;1.15;0.50;;;29.90;97.70;;;;;;5071988;28;20037;-67
2021/12/19 06:18:05;;;;;;;1.95;0.40;;;29.60;97.30;;;;;;5066692;28;20024;-68
2021/12/19 06:20:33;;;;;;;1.33;0.40;;;29.50;97.20;;;;;;5046845;28;20034;-69
2021/12/19 06:23:01;;;;;;;0.60;0.20;;;29.40;97.40;;;;;;5060092;28;20051;-68
2021/12/19 06:25:28;;;;;;;1.65;0.40;;;29.10;97.70;;;;;;5062267;28;20001;-69
2021/12/19 06:27:56;;;;;;;0.95;0.30;;;28.80;98.30;;;;;;5054933;28;20107;-68
2021/12/19 06:30:23;;;;;;;3.17;0.43;;;28.40;98.50;;;;;;5051554;28;20025;-68
2021/12/19 06:32:50;;;;;;;1.50;0.30;;;28.20;98.80;;;;;;5056362;28;20492;-68
2021/12/19 06:35:18;;;;;;;1.75;0.35;;;28.10;99.20;;;;;;5057427;28;20063;-68
2021/12/19 06:37:50;;;;;;;4.05;0.75;;;28.00;99.70;;;;;;5058406;28;20017;-69
2021/12/19 06:40:21;;;;;;;2.88;0.77;;;28.00;98.70;;;;;;5064548;28;20013;-69
2021/12/19 06:42:48;;;;;;;2.55;0.50;;;28.10;98.50;;;;;;5057593;28;20558;-68
2021/12/19 06:45:17;;;;;;;4.00;0.77;;;28.20;98.50;;;;;;5063242;28;20021;-68
2021/12/19 06:47:44;;;;;;;2.13;0.82;;;28.20;98.40;;;;;;5061867;28;20091;-68
2021/12/19 06:50:15;;;;;;;2.25;0.40;;;28.20;98.70;;;;;;5065964;28;20028;-69
2021/12/19 06:52:43;;;;;;;4.90;0.50;;;28.20;98.20;;;;;;5061371;28;20496;-68
2021/12/19 06:55:13;;;;;;;2.38;0.43;;;28.10;98.70;;;;;;5063433;28;20408;-69
2021/12/19 06:57:40;;;;;;;0.70;0.30;;;28.20;98.40;;;;;;5066024;28;20028;-67
2021/12/19 07:00:11;;;;;;;1.73;0.38;;;28.30;98.20;;;;;;5065070;28;20028;-68
2021/12/19 07:02:39;;;;;;;0.68;0.20;;;28.30;98.20;;;;;;5068023;28;20481;-68
2021/12/19 07:05:07;;;;;;;1.77;0.22;;;28.30;98.20;;;;;;5066052;28;20071;-67
2021/12/19 07:07:34;;;;;;;3.80;0.57;;;28.30;98.20;;;;;;5053304;28;20457;-68
2021/12/19 07:10:01;;;;;;;1.15;0.30;;;28.30;98.20;;;;;;5068352;28;20029;-68
2021/12/19 07:12:28;;;;;;;0.85;0.30;;;28.30;98.10;;;;;;5074524;28;20097;-68
2021/12/19 07:14:56;;;;;;;1.40;0.22;;;28.30;98.20;;;;;;5072385;28;20028;-68
2021/12/19 07:17:24;;;;;;;3.25;0.65;;;28.30;98.10;;;;;;5072961;28;20028;-68
2021/12/19 07:19:52;;;;;;;2.15;0.60;;;28.30;98.30;;;;;;5076449;28;20025;-68
2021/12/19 07:22:19;;;;;;;4.55;0.30;;;28.30;98.30;;;;;;5077702;28;20074;-69
2021/12/19 07:24:47;;;;;;;2.78;0.30;;;28.30;98.00;;;;;;5077914;28;20040;-69
2021/12/19 07:27:15;;;;;;;1.65;0.52;;;28.30;98.20;;;;;;5073088;28;20033;-68
2021/12/19 07:29:42;;;;;;;1.08;0.30;;;28.30;98.20;;;;;;5077047;28;20013;-68
2021/12/19 07:32:12;;;;;;;1.13;0.50;;;28.30;98.00;;;;;;5078458;28;20074;-68
2021/12/19 07:34:40;;;;;;;4.55;0.70;;;28.30;98.20;;;;;;5077318;28;20005;-68
2021/12/19 07:37:08;;;;;;;1.50;0.32;;;28.30;98.80;;;;;;5075343;28;20044;-69
2021/12/19 07:42:05;;;;;;;6.22;0.40;;;28.30;98.70;;;;;;5065425;28;20049;-71
2021/12/19 07:44:32;;;;;;;2.05;0.40;;;28.20;99.40;;;;;;5052809;28;20494;-72
2021/12/19 07:47:00;;;;;;;1.15;0.52;;;27.60;99.90;;;;;;5035842;28;20050;-67
2021/12/19 07:49:27;;;;;;;3.85;0.30;;;26.60;99.90;;;;;;5039947;28;20021;-68
2021/12/19 07:51:55;;;;;;;3.42;0.50;;;26.00;99.90;;;;;;5050494;28;20039;-69
2021/12/19 07:54:23;;;;;;;1.23;0.20;;;25.80;99.90;;;;;;5035420;28;20034;-69
2021/12/19 07:56:51;;;;;;;1.90;0.43;;;25.60;99.90;;;;;;5033973;28;20022;-69
2021/12/19 07:59:19;;;;;;;1.45;0.40;;;25.70;99.90;;;;;;5047434;28;20099;-69
2021/12/19 08:01:48;;;;;;;1.65;0.38;;;25.80;99.90;;;;;;5055251;28;20035;-69
2021/12/19 08:04:16;;;;;;;1.40;0.40;;;25.80;99.90;;;;;;5052941;28;20382;-69
2021/12/19 08:06:43;;;;;;;2.28;0.60;;;25.80;99.90;;;;;;5049456;28;20025;-70
2021/12/19 08:09:21;;;;;;;4.78;1.08;;;25.80;99.90;;;;;;5053562;28;20104;-70
2021/12/19 08:11:51;;;;;;;1.92;0.65;;;25.90;99.90;;;;;;5033635;28;20033;-69
2021/12/19 08:14:19;;;;;;;0.82;0.30;;;25.80;99.90;;;;;;5034704;28;20044;-70
2021/12/19 08:16:47;;;;;;;0.75;0.40;;;25.90;99.90;;;;;;5051190;28;20032;-69
2021/12/19 08:19:14;;;;;;;1.55;0.50;;;25.90;99.90;;;;;;5054674;28;20473;-70
2021/12/19 08:21:42;;;;;;;3.53;1.90;;;26.00;99.90;;;;;;5054840;28;20110;-69
2021/12/19 08:24:11;;;;;;;1.88;0.60;;;26.10;99.90;;;;;;5054603;28;20196;-69
2021/12/19 08:26:41;;;;;;;3.80;0.40;;;26.00;99.90;;;;;;5055309;28;20044;-69
2021/12/19 08:29:10;;;;;;;1.38;0.30;;;26.00;99.90;;;;;;5049830;28;20025;-68
2021/12/19 08:31:38;;;;;;;0.68;0.20;;;26.10;99.90;;;;;;5034521;28;20033;-69
2021/12/19 08:34:05;;;;;;;1.02;0.30;;;26.00;99.90;;;;;;5051900;28;20021;-69
2021/12/19 08:36:33;;;;;;;3.13;2.00;;;25.80;99.90;;;;;;5054469;28;20025;-68
2021/12/19 08:39:00;;;;;;;1.67;0.32;;;25.70;99.90;;;;;;5053863;28;20028;-68
2021/12/19 08:41:27;;;;;;;1.40;0.47;;;25.60;99.90;;;;;;5054225;28;20045;-68
2021/12/19 08:43:55;;;;;;;1.98;0.50;;;25.60;99.90;;;;;;5054300;28;20021;-68
2021/12/19 08:46:22;;;;;;;2.78;0.32;;;25.70;99.90;;;;;;5053975;28;20041;-69
2021/12/19 08:48:50;;;;;;;2.30;0.88;;;25.70;99.90;;;;;;5054221;28;20025;-69
2021/12/19 08:51:17;;;;;;;2.47;0.70;;;25.70;99.90;;;;;;5052508;28;20033;-68
2021/12/19 08:53:44;;;;;;;3.15;0.32;;;25.70;99.90;;;;;;5054720;28;20025;-68
2021/12/19 08:56:12;;;;;;;1.58;0.70;;;25.60;99.90;;;;;;5054022;28;20021;-68
2021/12/19 08:58:39;;;;;;;2.25;0.45;;;25.60;99.90;;;;;;5050612;28;20497;-68
2021/12/19 09:01:06;;;;;;;1.67;0.50;;;25.60;99.90;;;;;;5041680;28;20067;-69
2021/12/19 09:03:34;;;;;;;1.98;0.22;;;25.40;99.90;;;;;;5054282;28;20017;-68
2021/12/19 09:06:02;;;;;;;3.47;0.60;;;25.40;99.90;;;;;;5053895;28;20036;-68
2021/12/19 09:08:30;;;;;;;2.97;0.50;;;25.20;99.90;;;;;;5052672;28;20120;-68
2021/12/19 09:10:58;;;;;;;2.53;0.40;;;25.00;99.90;;;;;;5053779;28;20092;-67
2021/12/19 09:13:26;;;;;;;2.10;0.40;;;24.90;99.90;;;;;;5053857;28;20090;-68
2021/12/19 09:15:54;;;;;;;2.22;0.50;;;24.80;99.90;;;;;;5053645;28;20366;-68
2021/12/19 09:18:21;;;;;;;2.85;0.75;;;24.70;99.90;;;;;;5054069;28;20029;-67
2021/12/19 09:20:50;;;;;;;2.42;0.25;;;24.70;99.90;;;;;;5073667;28;20031;-67
2021/12/19 09:23:18;;;;;;;1.40;0.40;;;24.60;99.90;;;;;;5063491;28;20049;-68
2021/12/19 09:25:46;;;;;;;0.80;0.22;;;24.60;99.90;;;;;;5052865;28;20385;-68
2021/12/19 09:28:14;;;;;;;1.23;0.35;;;24.70;99.90;;;;;;5053898;28;20478;-67
2021/12/19 09:30:45;;;;;;;2.30;0.30;;;24.60;99.90;;;;;;5053596;28;20033;-68
2021/12/19 09:33:13;;;;;;;1.33;0.40;;;24.50;99.90;;;;;;5053610;28;20025;-68
2021/12/19 09:35:40;;;;;;;2.70;0.45;;;24.50;99.90;;;;;;5053254;28;20055;-68
2021/12/19 09:38:08;;;;;;;0.63;0.28;;;24.50;99.90;;;;;;5053230;28;20104;-68
2021/12/19 09:40:39;;;;;;;1.48;0.22;;;24.60;99.90;;;;;;5053094;28;20374;-68
2021/12/19 09:43:31;;;;;;;1.05;0.40;;;24.50;99.90;;;;;;5053512;28;20458;-69
2021/12/19 09:46:00;;;;;;;2.88;0.40;;;24.50;99.90;;;;;;5052970;28;20053;-69
2021/12/19 09:48:27;;;;;;;3.20;0.50;;;24.50;99.90;;;;;;5052078;28;20478;-69
2021/12/19 09:50:55;;;;;;;1.50;0.30;;;24.50;99.90;;;;;;5068892;28;20056;-69
2021/12/19 09:53:23;;;;;;;2.95;0.73;;;24.50;99.90;;;;;;5062138;28;20029;-69
2021/12/19 09:55:50;;;;;;;1.65;0.30;;;24.50;99.90;;;;;;5051705;28;20063;-68
2021/12/19 09:58:17;;;;;;;0.73;0.30;;;24.50;99.90;;;;;;5051766;28;20025;-69
2021/12/19 10:00:44;;;;;;;0.52;0.30;;;24.40;99.90;;;;;;5051422;28;20036;-69
2021/12/19 10:03:12;;;;;;;1.58;0.38;;;24.40;99.90;;;;;;5052940;28;20057;-69
2021/12/19 10:05:40;;;;;;;1.00;0.25;;;24.30;99.90;;;;;;5053041;28;20078;-69
2021/12/19 10:08:08;;;;;;;0.50;0.30;;;24.30;99.90;;;;;;5051660;28;20052;-69
2021/12/19 10:10:47;;;;;;;1.95;0.50;;;24.20;99.90;;;;;;5051619;28;20048;-69
2021/12/19 10:13:14;;;;;;;1.45;0.30;;;24.20;99.90;;;;;;5051308;28;20037;-69
2021/12/19 10:15:44;;;;;;;3.33;0.40;;;24.30;99.90;;;;;;5052417;28;20040;-69
2021/12/19 10:18:17;;;;;;;1.48;0.43;;;24.20;99.90;;;;;;5041814;28;20037;-69
2021/12/19 10:20:51;;;;;;;1.73;0.30;;;24.20;99.90;;;;;;5032968;28;20055;-69
2021/12/19 10:23:22;;;;;;;0.50;0.20;;;24.20;99.90;;;;;;5032772;28;20096;-70
2021/12/19 10:26:01;;;;;;;3.92;0.22;;;24.20;99.90;;;;;;5032805;28;20025;-70
2021/12/19 10:28:30;;;;;;;1.15;0.20;;;24.20;99.90;;;;;;5031334;28;20389;-69
2021/12/19 10:31:02;;;;;;;0.25;0.22;;;24.20;99.90;;;;;;5032425;28;20030;-69
2021/12/19 10:33:32;;;;;;;0.85;0.20;;;24.10;99.90;;;;;;5045387;28;20025;-70
2021/12/19 10:36:04;;;;;;;0.47;0.20;;;24.10;99.90;;;;;;5032074;28;20083;-70
2021/12/19 10:38:43;;;;;;;3.97;1.15;;;24.10;99.90;;;;;;5032034;28;20029;-69
2021/12/19 10:41:17;;;;;;;1.00;0.35;;;24.10;99.90;;;;;;5031888;28;20037;-69
2021/12/19 10:43:57;;;;;;;2.25;0.57;;;24.10;99.90;;;;;;5032341;28;20028;-69
2021/12/19 10:46:39;;;;;;;0.85;0.40;;;24.00;99.90;;;;;;5032354;28;20136;-69
2021/12/19 10:49:32;;;;;;;2.75;0.30;;;24.00;99.90;;;;;;5038683;28;20032;-69
2021/12/19 10:52:01;;;;;;;2.53;0.30;;;23.90;99.90;;;;;;5040620;28;20051;-69
2021/12/19 10:54:29;;;;;;;2.47;0.45;;;23.80;99.90;;;;;;5051890;28;20389;-69
2021/12/19 10:57:11;;;;;;;1.05;0.30;;;23.80;99.90;;;;;;5052241;28;20465;-69
2021/12/19 10:59:38;;;;;;;2.08;0.30;;;23.80;99.90;;;;;;5051948;28;20075;-69
2021/12/19 11:02:05;;;;;;;2.92;0.52;;;23.80;99.90;;;;;;5052254;28;20493;-69
2021/12/19 11:04:36;;;;;;;1.38;0.20;;;23.80;99.90;;;;;;5052280;28;20037;-69
2021/12/19 11:07:04;;;;;;;0.32;0.20;;;23.70;99.90;;;;;;5051926;28;20115;-69
2021/12/19 11:09:37;;;;;;;3.10;0.30;;;23.70;99.90;;;;;;5050824;28;20033;-69
2021/12/19 11:12:05;;;;;;;1.17;0.30;;;23.70;99.90;;;;;;5051958;28;20025;-69
2021/12/19 11:14:44;;;;;;;1.63;0.32;;;23.70;99.90;;;;;;5052003;28;20048;-69
2021/12/19 11:17:14;;;;;;;0.95;0.30;;;23.60;99.90;;;;;;5051883;28;20025;-69
2021/12/19 11:19:43;;;;;;;0.98;0.47;;;23.60;99.90;;;;;;5050744;28;20444;-69
2021/12/19 11:22:11;;;;;;;2.00;0.22;;;23.60;99.90;;;;;;5051743;28;20027;-69
2021/12/19 11:24:39;;;;;;;0.57;0.20;;;23.60;99.90;;;;;;5051790;28;20025;-69
2021/12/19 11:27:08;;;;;;;0.93;0.30;;;23.60;99.90;;;;;;5051827;28;20359;-69
2021/12/19 11:29:36;;;;;;;2.03;0.28;;;23.60;99.90;;;;;;5051700;28;20363;-70
2021/12/19 11:32:08;;;;;;;1.33;0.30;;;23.60;99.90;;;;;;5051783;28;20029;-69
2021/12/19 11:35:04;;;;;;;0.93;0.40;;;23.50;99.90;;;;;;5051978;28;20074;-69
2021/12/19 11:38:00;;;;;;;2.03;0.40;;;23.50;99.90;;;;;;5049335;28;20041;-69
2021/12/19 11:40:36;;;;;;;1.67;0.50;;;23.50;99.90;;;;;;5051460;28;20040;-68
2021/12/19 11:43:06;;;;;;;1.02;0.30;;;23.50;99.90;;;;;;5046221;28;20539;-69
2021/12/19 11:51:00;;;;;;;0.60;0.22;;;23.50;99.90;;;;;;5075194;28;20469;-69
2021/12/19 11:53:37;;;;;;;3.25;0.40;;;23.50;99.90;;;;;;5075380;28;20025;-69
2021/12/19 11:56:09;;;;;;;2.15;0.47;;;23.50;99.90;;;;;;5072832;28;20079;-69
2021/12/19 11:58:48;;;;;;;1.10;0.30;;;23.50;99.90;;;;;;5055355;28;20029;-69
2021/12/19 12:01:30;;;;;;;1.33;0.20;;;23.50;99.90;;;;;;5053998;28;20452;-69
2021/12/19 12:03:59;;;;;;;2.17;0.50;;;23.50;99.90;;;;;;5055028;28;20065;-69
2021/12/19 12:06:37;;;;;;;2.22;0.43;;;23.50;99.90;;;;;;5053761;28;20025;-69
2021/12/19 12:09:06;;;;;;;0.68;0.28;;;23.50;99.90;;;;;;5055073;28;20028;-69
2021/12/19 12:11:36;;;;;;;0.47;0.30;;;23.50;99.90;;;;;;5053618;28;20037;-69
2021/12/19 12:14:28;;;;;;;2.25;0.30;;;23.40;99.90;;;;;;5053227;28;20029;-69
2021/12/19 12:17:07;;;;;;;1.52;0.30;;;23.30;99.90;;;;;;5054702;28;20017;-69
2021/12/19 12:19:41;;;;;;;2.53;0.30;;;23.30;99.90;;;;;;5054715;28;20025;-69
2021/12/19 12:22:26;;;;;;;3.40;0.30;;;23.30;99.90;;;;;;5054612;28;20021;-69
2021/12/19 12:25:08;;;;;;;0.73;0.20;;;23.20;99.90;;;;;;5048663;28;20036;-69
2021/12/19 12:27:43;;;;;;;1.55;0.30;;;23.20;99.90;;;;;;5054421;28;20478;-69
2021/12/19 12:30:17;;;;;;;1.83;0.33;;;23.20;99.90;;;;;;5054226;28;20017;-69
2021/12/19 12:32:45;;;;;;;1.52;0.25;;;23.20;99.90;;;;;;5054729;28;20021;-69
2021/12/19 12:35:14;;;;;;;1.70;0.30;;;23.00;99.90;;;;;;5054416;28;20029;-69
2021/12/19 12:37:43;;;;;;;0.77;0.28;;;23.00;99.90;;;;;;5048870;28;20135;-69
2021/12/19 12:40:25;;;;;;;1.20;0.30;;;23.00;99.90;;;;;;5053478;28;20440;-69
2021/12/19 12:43:19;;;;;;;1.88;0.25;;;23.10;99.90;;;;;;5054636;28;20031;-69
2021/12/19 12:46:07;;;;;;;4.05;0.30;;;23.00;99.90;;;;;;5039019;28;20029;-69
2021/12/19 12:48:53;;;;;;;2.47;0.60;;;23.00;99.90;;;;;;5054351;28;20503;-69
2021/12/19 12:51:26;;;;;;;1.52;0.30;;;23.00;99.90;;;;;;5054234;28;20040;-69
2021/12/19 12:53:56;;;;;;;1.80;0.32;;;23.00;99.90;;;;;;5052783;28;20040;-69
2021/12/19 12:56:34;;;;;;;0.70;0.20;;;23.00;99.90;;;;;;5053729;28;20025;-69
2021/12/19 12:59:03;;;;;;;1.13;0.30;;;23.00;99.90;;;;;;5053798;28;20028;-69
2021/12/19 13:01:37;;;;;;;1.55;0.30;;;22.90;99.90;;;;;;5052736;28;20032;-69
2021/12/19 13:04:04;;;;;;;0.80;0.30;;;22.90;99.90;;;;;;5053340;28;20378;-69
2021/12/19 13:06:46;;;;;;;1.38;0.30;;;22.90;99.90;;;;;;5048100;28;20541;-69
2021/12/19 13:09:27;;;;;;;3.38;0.50;;;23.00;99.90;;;;;;5033711;28;20022;-69
2021/12/19 13:12:03;;;;;;;1.42;0.40;;;22.90;99.90;;;;;;5053588;28;20061;-69
2021/12/19 13:14:33;;;;;;;1.60;0.30;;;22.90;99.90;;;;;;5053704;28;20064;-69
2021/12/19 13:17:06;;;;;;;1.00;0.40;;;22.90;99.90;;;;;;5053500;28;20021;-69
2021/12/19 13:19:46;;;;;;;3.08;0.38;;;22.90;99.90;;;;;;5053611;28;20024;-69
2021/12/19 13:22:15;;;;;;;0.50;0.20;;;22.80;99.90;;;;;;5053368;28;20040;-69
2021/12/19 13:24:44;;;;;;;1.35;0.35;;;22.80;99.90;;;;;;5046934;28;20017;-69
2021/12/19 13:27:20;;;;;;;2.13;0.40;;;22.80;99.90;;;;;;5033499;28;20601;-69
2021/12/19 13:30:19;;;;;;;1.27;0.28;;;22.80;99.90;;;;;;5032125;28;20033;-69
2021/12/19 13:32:50;;;;;;;1.85;0.40;;;22.70;99.90;;;;;;5036917;28;20049;-69
2021/12/19 13:35:31;;;;;;;1.75;0.57;;;22.70;99.90;;;;;;5033565;28;20022;-67
2021/12/19 13:38:13;;;;;;;1.27;0.40;;;22.80;99.90;;;;;;5034718;28;20030;-69
2021/12/19 13:40:46;;;;;;;1.83;0.20;;;22.80;99.90;;;;;;5053279;28;20013;-69
2021/12/19 13:43:14;;;;;;;1.40;0.30;;;22.80;99.90;;;;;;5051925;28;20033;-69
2021/12/19 13:45:56;;;;;;;3.13;0.30;;;22.80;99.90;;;;;;5051971;28;20049;-69
2021/12/19 13:48:35;;;;;;;1.80;0.25;;;22.80;99.90;;;;;;5065897;28;20563;-69
2021/12/19 13:51:02;;;;;;;0.98;0.20;;;22.70;99.90;;;;;;5072836;28;20032;-69
2021/12/19 13:53:32;;;;;;;0.95;0.40;;;22.80;99.90;;;;;;5073056;28;20020;-69
2021/12/19 13:56:12;;;;;;;1.55;0.70;;;22.80;99.90;;;;;;5062974;28;20435;-69
2021/12/19 13:58:44;;;;;;;3.25;0.88;;;22.80;99.90;;;;;;5053054;28;20021;-69
2021/12/19 14:01:20;;;;;;;1.50;0.50;;;22.80;99.90;;;;;;5052740;28;20021;-69
2021/12/19 14:03:59;;;;;;;0.68;0.20;;;22.70;99.90;;;;;;5038514;28;20504;-69
2021/12/19 14:06:36;;;;;;;2.63;0.43;;;22.70;99.90;;;;;;5032681;28;20076;-69